sensor_id;sensor_type;location;lat;lon;timestamp;pressure;altitude;pressure_sealevel;temperature;humidity
63339;BME280;47485;51.378;-1.342;2022-07-30T00:00:33;100504.27;;;21.96;21.06
63339;BME280;47485;51.378;-1.342;2022-07-30T00:03:00;100500.40;;;21.15;20.62
63339;BME280;47485;51.378;-1.342;2022-07-30T00:05:27;100498.81;;;18.81;21.72
63339;BME280;47485;51.378;-1.342;2022-07-30T00:07:54;100498.56;;;18.02;22.28
63339;BME280;47485;51.378;-1.342;2022-07-30T00:10:21;100501.63;;;17.92;21.45
63339;BME280;47485;51.378;-1.342;2022-07-30T00:12:48;100501.66;;;18.56;21.45
63339;BME280;47485;51.378;-1.342;2022-07-30T00:15:20;100499.78;;;21.38;19.79
63339;BME280;47485;51.378;-1.342;2022-07-30T00:17:51;100494.70;;;21.71;18.98
63339;BME280;47485;51.378;-1.342;2022-07-30T00:20:18;100492.70;;;19.59;19.55
63339;BME280;47485;51.378;-1.342;2022-07-30T00:22:45;100491.44;;;18.78;20.59
63339;BME280;47485;51.378;-1.342;2022-07-30T00:25:12;100490.82;;;20.28;19.74
63339;BME280;47485;51.378;-1.342;2022-07-30T00:27:39;100488.53;;;22.36;18.81
63339;BME280;47485;51.378;-1.342;2022-07-30T00:30:06;100486.39;;;20.04;19.58
63339;BME280;47485;51.378;-1.342;2022-07-30T00:32:33;100486.58;;;20.13;19.57
63339;BME280;47485;51.378;-1.342;2022-07-30T00:35:00;100485.77;;;19.66;19.79
63339;BME280;47485;51.378;-1.342;2022-07-30T00:37:27;100483.79;;;18.63;20.16
63339;BME280;47485;51.378;-1.342;2022-07-30T00:39:55;100483.24;;;19.22;20.10
63339;BME280;47485;51.378;-1.342;2022-07-30T00:42:22;100482.52;;;19.78;19.74
63339;BME280;47485;51.378;-1.342;2022-07-30T00:44:49;100483.29;;;19.87;19.99
63339;BME280;47485;51.378;-1.342;2022-07-30T00:47:15;100481.61;;;18.17;20.09
63339;BME280;47485;51.378;-1.342;2022-07-30T00:49:42;100483.67;;;18.48;19.65
63339;BME280;47485;51.378;-1.342;2022-07-30T00:52:14;100487.29;;;20.65;18.75
63339;BME280;47485;51.378;-1.342;2022-07-30T00:54:41;100491.97;;;21.21;18.69
63339;BME280;47485;51.378;-1.342;2022-07-30T00:57:07;100492.37;;;20.38;18.89
63339;BME280;47485;51.378;-1.342;2022-07-30T00:59:34;100495.98;;;19.90;19.42
63339;BME280;47485;51.378;-1.342;2022-07-30T01:02:01;100499.14;;;19.71;19.30
63339;BME280;47485;51.378;-1.342;2022-07-30T01:04:33;100503.00;;;18.41;20.31
63339;BME280;47485;51.378;-1.342;2022-07-30T01:07:00;100506.99;;;19.31;19.79
63339;BME280;47485;51.378;-1.342;2022-07-30T01:09:26;100503.81;;;19.23;19.89
63339;BME280;47485;51.378;-1.342;2022-07-30T01:11:54;100500.89;;;19.06;19.99
63339;BME280;47485;51.378;-1.342;2022-07-30T01:14:22;100498.98;;;19.73;19.64
63339;BME280;47485;51.378;-1.342;2022-07-30T01:16:50;100495.00;;;18.84;20.13
63339;BME280;47485;51.378;-1.342;2022-07-30T01:19:21;100493.90;;;17.70;20.72
63339;BME280;47485;51.378;-1.342;2022-07-30T01:22:02;100496.18;;;18.98;20.00
63339;BME280;47485;51.378;-1.342;2022-07-30T01:24:35;100495.91;;;17.81;20.89
63339;BME280;47485;51.378;-1.342;2022-07-30T01:27:05;100496.25;;;17.11;21.73
63339;BME280;47485;51.378;-1.342;2022-07-30T01:29:33;100491.62;;;17.73;21.03
63339;BME280;47485;51.378;-1.342;2022-07-30T01:32:01;100489.33;;;20.09;21.14
63339;BME280;47485;51.378;-1.342;2022-07-30T01:34:33;100488.05;;;19.36;21.64
63339;BME280;47485;51.378;-1.342;2022-07-30T01:37:07;100485.22;;;17.13;22.79
63339;BME280;47485;51.378;-1.342;2022-07-30T01:39:36;100482.02;;;17.86;22.77
63339;BME280;47485;51.378;-1.342;2022-07-30T01:42:09;100477.26;;;17.99;23.10
63339;BME280;47485;51.378;-1.342;2022-07-30T01:44:38;100474.60;;;19.05;22.19
63339;BME280;47485;51.378;-1.342;2022-07-30T01:47:07;100479.85;;;19.73;21.22
63339;BME280;47485;51.378;-1.342;2022-07-30T01:49:35;100480.38;;;21.28;20.88
63339;BME280;47485;51.378;-1.342;2022-07-30T01:52:04;100484.08;;;15.61;25.01
63339;BME280;47485;51.378;-1.342;2022-07-30T01:54:32;100485.33;;;16.04;25.10
63339;BME280;47485;51.378;-1.342;2022-07-30T01:57:01;100488.24;;;18.46;23.14
63339;BME280;47485;51.378;-1.342;2022-07-30T01:59:32;100493.26;;;13.94;26.26
63339;BME280;47485;51.378;-1.342;2022-07-30T02:02:00;100492.20;;;13.38;26.34
63339;BME280;47485;51.378;-1.342;2022-07-30T02:04:28;100492.03;;;14.15;26.95
63339;BME280;47485;51.378;-1.342;2022-07-30T02:07:00;100481.63;;;18.45;23.96
63339;BME280;47485;51.378;-1.342;2022-07-30T02:09:32;100476.98;;;18.23;23.72
63339;BME280;47485;51.378;-1.342;2022-07-30T02:12:01;100471.63;;;17.08;24.50
63339;BME280;47485;51.378;-1.342;2022-07-30T02:14:33;100477.00;;;17.34;24.81
63339;BME280;47485;51.378;-1.342;2022-07-30T02:17:05;100477.81;;;19.52;22.57
63339;BME280;47485;51.378;-1.342;2022-07-30T02:19:38;100479.16;;;16.72;24.46
63339;BME280;47485;51.378;-1.342;2022-07-30T02:22:11;100479.22;;;15.97;24.94
63339;BME280;47485;51.378;-1.342;2022-07-30T02:24:41;100477.75;;;16.32;24.32
63339;BME280;47485;51.378;-1.342;2022-07-30T02:27:12;100480.32;;;19.26;22.74
63339;BME280;47485;51.378;-1.342;2022-07-30T02:29:46;100489.27;;;18.34;23.24
63339;BME280;47485;51.378;-1.342;2022-07-30T02:32:17;100491.74;;;18.77;23.01
63339;BME280;47485;51.378;-1.342;2022-07-30T02:34:47;100489.40;;;19.23;22.66
63339;BME280;47485;51.378;-1.342;2022-07-30T02:37:17;100486.28;;;17.51;23.88
63339;BME280;47485;51.378;-1.342;2022-07-30T02:39:50;100489.04;;;16.86;23.98
63339;BME280;47485;51.378;-1.342;2022-07-30T02:42:21;100486.37;;;17.79;23.27
63339;BME280;47485;51.378;-1.342;2022-07-30T02:44:51;100480.99;;;17.45;23.09
63339;BME280;47485;51.378;-1.342;2022-07-30T02:47:21;100476.02;;;18.82;22.93
63339;BME280;47485;51.378;-1.342;2022-07-30T02:49:50;100480.14;;;16.64;23.37
63339;BME280;47485;51.378;-1.342;2022-07-30T02:52:17;100471.80;;;17.38;23.13
63339;BME280;47485;51.378;-1.342;2022-07-30T02:54:45;100477.30;;;17.77;22.58
63339;BME280;47485;51.378;-1.342;2022-07-30T02:57:13;100474.52;;;16.73;22.86
63339;BME280;47485;51.378;-1.342;2022-07-30T02:59:44;100476.46;;;16.74;23.13
63339;BME280;47485;51.378;-1.342;2022-07-30T03:02:13;100478.07;;;16.85;22.05
63339;BME280;47485;51.378;-1.342;2022-07-30T03:04:41;100476.99;;;18.57;22.49
63339;BME280;47485;51.378;-1.342;2022-07-30T03:07:09;100473.32;;;17.98;22.53
63339;BME280;47485;51.378;-1.342;2022-07-30T03:09:43;100473.08;;;17.70;22.69
63339;BME280;47485;51.378;-1.342;2022-07-30T03:12:12;100474.62;;;18.20;22.35
63339;BME280;47485;51.378;-1.342;2022-07-30T03:14:39;100477.13;;;16.46;23.13
63339;BME280;47485;51.378;-1.342;2022-07-30T03:17:06;100473.82;;;17.06;22.93
63339;BME280;47485;51.378;-1.342;2022-07-30T03:19:37;100469.66;;;19.16;22.00
63339;BME280;47485;51.378;-1.342;2022-07-30T03:22:05;100470.83;;;16.62;23.62
63339;BME280;47485;51.378;-1.342;2022-07-30T03:24:39;100470.51;;;15.37;23.88
63339;BME280;47485;51.378;-1.342;2022-07-30T03:27:15;100468.20;;;19.25;22.80
63339;BME280;47485;51.378;-1.342;2022-07-30T03:29:43;100470.64;;;18.07;23.05
63339;BME280;47485;51.378;-1.342;2022-07-30T03:32:11;100474.34;;;20.73;22.31
63339;BME280;47485;51.378;-1.342;2022-07-30T03:34:40;100477.28;;;20.22;22.27
63339;BME280;47485;51.378;-1.342;2022-07-30T03:37:08;100476.23;;;19.41;22.11
63339;BME280;47485;51.378;-1.342;2022-07-30T03:39:36;100478.56;;;15.52;25.01
63339;BME280;47485;51.378;-1.342;2022-07-30T03:42:05;100476.15;;;14.83;25.57
63339;BME280;47485;51.378;-1.342;2022-07-30T03:44:32;100475.92;;;15.57;24.69
63339;BME280;47485;51.378;-1.342;2022-07-30T03:47:01;100476.13;;;16.79;23.75
63339;BME280;47485;51.378;-1.342;2022-07-30T03:49:28;100468.90;;;18.24;23.17
63339;BME280;47485;51.378;-1.342;2022-07-30T03:52:00;100468.10;;;17.63;23.78
63339;BME280;47485;51.378;-1.342;2022-07-30T03:54:29;100467.54;;;14.51;25.16
63339;BME280;47485;51.378;-1.342;2022-07-30T03:56:58;100458.24;;;16.83;24.05
63339;BME280;47485;51.378;-1.342;2022-07-30T03:59:25;100455.41;;;19.31;22.35
63339;BME280;47485;51.378;-1.342;2022-07-30T04:01:52;100455.59;;;18.11;23.15
63339;BME280;47485;51.378;-1.342;2022-07-30T04:04:20;100459.10;;;16.77;23.69
63339;BME280;47485;51.378;-1.342;2022-07-30T04:06:47;100455.34;;;17.00;23.15
63339;BME280;47485;51.378;-1.342;2022-07-30T04:09:13;100455.83;;;17.80;22.96
63339;BME280;47485;51.378;-1.342;2022-07-30T04:11:40;100455.81;;;17.75;22.91
63339;BME280;47485;51.378;-1.342;2022-07-30T04:14:07;100452.98;;;17.83;22.69
63339;BME280;47485;51.378;-1.342;2022-07-30T04:16:41;100451.26;;;17.54;22.70
63339;BME280;47485;51.378;-1.342;2022-07-30T04:19:14;100452.33;;;17.91;22.10
63339;BME280;47485;51.378;-1.342;2022-07-30T04:21:43;100453.42;;;20.53;21.04
63339;BME280;47485;51.378;-1.342;2022-07-30T04:24:11;100447.67;;;18.18;22.82
63339;BME280;47485;51.378;-1.342;2022-07-30T04:26:38;100451.01;;;17.28;23.16
63339;BME280;47485;51.378;-1.342;2022-07-30T04:29:07;100450.23;;;16.11;22.93
63339;BME280;47485;51.378;-1.342;2022-07-30T04:31:35;100450.57;;;15.99;24.24
63339;BME280;47485;51.378;-1.342;2022-07-30T04:34:03;100441.95;;;17.07;23.19
63339;BME280;47485;51.378;-1.342;2022-07-30T04:36:32;100439.05;;;16.01;22.93
63339;BME280;47485;51.378;-1.342;2022-07-30T04:38:59;100447.15;;;18.48;21.97
63339;BME280;47485;51.378;-1.342;2022-07-30T04:41:26;100450.76;;;20.33;21.47
63339;BME280;47485;51.378;-1.342;2022-07-30T04:43:54;100454.04;;;20.15;21.19
63339;BME280;47485;51.378;-1.342;2022-07-30T04:46:21;100455.00;;;21.17;21.58
63339;BME280;47485;51.378;-1.342;2022-07-30T04:48:47;100459.94;;;18.50;22.82
63339;BME280;47485;51.378;-1.342;2022-07-30T04:51:19;100466.39;;;17.88;23.37
63339;BME280;47485;51.378;-1.342;2022-07-30T04:53:52;100461.15;;;19.49;22.01
63339;BME280;47485;51.378;-1.342;2022-07-30T04:56:20;100462.60;;;19.66;22.22
63339;BME280;47485;51.378;-1.342;2022-07-30T04:58:48;100466.11;;;20.11;22.94
63339;BME280;47485;51.378;-1.342;2022-07-30T05:01:18;100467.74;;;19.27;23.53
63339;BME280;47485;51.378;-1.342;2022-07-30T05:03:49;100469.35;;;19.79;23.97
63339;BME280;47485;51.378;-1.342;2022-07-30T05:06:17;100471.16;;;18.76;24.26
63339;BME280;47485;51.378;-1.342;2022-07-30T05:08:44;100469.03;;;18.89;24.60
63339;BME280;47485;51.378;-1.342;2022-07-30T05:11:12;100464.19;;;18.21;24.38
63339;BME280;47485;51.378;-1.342;2022-07-30T05:13:40;100466.49;;;18.56;24.13
63339;BME280;47485;51.378;-1.342;2022-07-30T05:16:12;100465.39;;;19.67;24.38
63339;BME280;47485;51.378;-1.342;2022-07-30T05:18:39;100464.61;;;18.84;24.01
63339;BME280;47485;51.378;-1.342;2022-07-30T05:21:06;100471.94;;;17.78;24.11
63339;BME280;47485;51.378;-1.342;2022-07-30T05:23:39;100470.01;;;18.33;23.91
63339;BME280;47485;51.378;-1.342;2022-07-30T05:26:05;100459.79;;;18.08;23.58
63339;BME280;47485;51.378;-1.342;2022-07-30T05:28:32;100457.59;;;19.66;22.83
63339;BME280;47485;51.378;-1.342;2022-07-30T05:31:04;100455.32;;;16.92;23.61
63339;BME280;47485;51.378;-1.342;2022-07-30T05:33:31;100463.96;;;17.63;23.60
63339;BME280;47485;51.378;-1.342;2022-07-30T05:35:58;100470.45;;;16.88;23.57
63339;BME280;47485;51.378;-1.342;2022-07-30T05:38:25;100470.77;;;17.17;23.70
63339;BME280;47485;51.378;-1.342;2022-07-30T05:40:52;100475.55;;;16.95;23.26
63339;BME280;47485;51.378;-1.342;2022-07-30T05:43:19;100477.76;;;17.66;23.16
63339;BME280;47485;51.378;-1.342;2022-07-30T05:45:46;100474.99;;;16.23;22.99
63339;BME280;47485;51.378;-1.342;2022-07-30T05:48:13;100472.02;;;19.12;22.18
63339;BME280;47485;51.378;-1.342;2022-07-30T05:50:40;100470.13;;;22.50;20.48
63339;BME280;47485;51.378;-1.342;2022-07-30T05:53:06;100468.11;;;21.87;21.47
63339;BME280;47485;51.378;-1.342;2022-07-30T05:55:33;100467.96;;;19.34;22.57
63339;BME280;47485;51.378;-1.342;2022-07-30T05:58:00;100466.01;;;20.02;22.53
63339;BME280;47485;51.378;-1.342;2022-07-30T06:00:27;100462.34;;;20.37;23.35
63339;BME280;47485;51.378;-1.342;2022-07-30T06:02:54;100461.57;;;20.47;23.92
63339;BME280;47485;51.378;-1.342;2022-07-30T06:05:21;100465.19;;;19.56;24.28
63339;BME280;47485;51.378;-1.342;2022-07-30T06:07:48;100466.91;;;19.73;24.55
63339;BME280;47485;51.378;-1.342;2022-07-30T06:10:15;100463.21;;;19.69;25.01
63339;BME280;47485;51.378;-1.342;2022-07-30T06:12:42;100463.56;;;19.72;25.45
63339;BME280;47485;51.378;-1.342;2022-07-30T06:15:09;100461.84;;;18.50;25.54
63339;BME280;47485;51.378;-1.342;2022-07-30T06:17:41;100464.37;;;19.07;26.06
63339;BME280;47485;51.378;-1.342;2022-07-30T06:20:09;100460.66;;;17.09;26.36
63339;BME280;47485;51.378;-1.342;2022-07-30T06:22:36;100459.88;;;18.86;26.08
63339;BME280;47485;51.378;-1.342;2022-07-30T06:25:03;100457.06;;;18.50;25.73
63339;BME280;47485;51.378;-1.342;2022-07-30T06:27:30;100459.16;;;19.37;25.29
63339;BME280;47485;51.378;-1.342;2022-07-30T06:29:57;100461.14;;;18.04;26.25
63339;BME280;47485;51.378;-1.342;2022-07-30T06:32:23;100464.41;;;17.46;26.78
63339;BME280;47485;51.378;-1.342;2022-07-30T06:34:50;100460.92;;;17.94;26.53
63339;BME280;47485;51.378;-1.342;2022-07-30T06:37:22;100457.65;;;17.70;25.77
63339;BME280;47485;51.378;-1.342;2022-07-30T06:39:49;100451.38;;;18.93;25.48
63339;BME280;47485;51.378;-1.342;2022-07-30T06:42:16;100451.72;;;20.29;25.25
63339;BME280;47485;51.378;-1.342;2022-07-30T06:44:43;100459.15;;;18.92;27.21
63339;BME280;47485;51.378;-1.342;2022-07-30T06:47:09;100455.51;;;19.17;27.57
63339;BME280;47485;51.378;-1.342;2022-07-30T06:49:37;100453.47;;;19.49;27.51
63339;BME280;47485;51.378;-1.342;2022-07-30T06:52:04;100452.62;;;19.17;28.37
63339;BME280;47485;51.378;-1.342;2022-07-30T06:54:30;100457.13;;;18.61;28.15
63339;BME280;47485;51.378;-1.342;2022-07-30T06:56:58;100459.24;;;17.90;28.37
63339;BME280;47485;51.378;-1.342;2022-07-30T06:59:25;100466.61;;;18.75;27.84
63339;BME280;47485;51.378;-1.342;2022-07-30T07:01:51;100468.60;;;19.46;27.86
63339;BME280;47485;51.378;-1.342;2022-07-30T07:04:19;100468.70;;;18.30;27.68
63339;BME280;47485;51.378;-1.342;2022-07-30T07:06:47;100469.92;;;18.72;27.71
63339;BME280;47485;51.378;-1.342;2022-07-30T07:09:14;100472.57;;;17.92;28.92
63339;BME280;47485;51.378;-1.342;2022-07-30T07:11:42;100474.23;;;18.84;29.65
63339;BME280;47485;51.378;-1.342;2022-07-30T07:14:09;100475.31;;;18.03;30.08
63339;BME280;47485;51.378;-1.342;2022-07-30T07:16:36;100481.47;;;17.05;31.69
63339;BME280;47485;51.378;-1.342;2022-07-30T07:19:02;100479.21;;;17.72;30.96
63339;BME280;47485;51.378;-1.342;2022-07-30T07:21:29;100479.89;;;18.69;31.07
63339;BME280;47485;51.378;-1.342;2022-07-30T07:23:56;100484.94;;;18.67;30.90
63339;BME280;47485;51.378;-1.342;2022-07-30T07:26:22;100491.72;;;17.39;31.06
63339;BME280;47485;51.378;-1.342;2022-07-30T07:28:49;100493.83;;;18.66;30.28
63339;BME280;47485;51.378;-1.342;2022-07-30T07:31:16;100494.12;;;16.77;33.66
63339;BME280;47485;51.378;-1.342;2022-07-30T07:33:43;100502.92;;;16.17;34.21
63339;BME280;47485;51.378;-1.342;2022-07-30T07:36:10;100501.91;;;17.25;34.31
63339;BME280;47485;51.378;-1.342;2022-07-30T07:38:36;100501.97;;;18.30;33.82
63339;BME280;47485;51.378;-1.342;2022-07-30T07:41:03;100506.80;;;17.69;33.10
63339;BME280;47485;51.378;-1.342;2022-07-30T07:43:30;100508.28;;;17.92;32.49
63339;BME280;47485;51.378;-1.342;2022-07-30T07:45:57;100514.37;;;16.58;33.54
63339;BME280;47485;51.378;-1.342;2022-07-30T07:48:23;100520.58;;;16.58;32.89
63339;BME280;47485;51.378;-1.342;2022-07-30T07:50:50;100528.99;;;15.36;34.40
63339;BME280;47485;51.378;-1.342;2022-07-30T07:53:17;100535.57;;;15.76;35.75
63339;BME280;47485;51.378;-1.342;2022-07-30T07:55:49;100529.43;;;16.14;34.13
63339;BME280;47485;51.378;-1.342;2022-07-30T07:58:16;100533.44;;;16.14;34.37
63339;BME280;47485;51.378;-1.342;2022-07-30T08:00:44;100537.88;;;17.22;34.09
63339;BME280;47485;51.378;-1.342;2022-07-30T08:03:10;100537.44;;;15.86;35.22
63339;BME280;47485;51.378;-1.342;2022-07-30T08:05:37;100531.79;;;16.22;34.50
63339;BME280;47485;51.378;-1.342;2022-07-30T08:08:04;100532.65;;;16.51;35.35
63339;BME280;47485;51.378;-1.342;2022-07-30T08:10:31;100533.42;;;15.83;35.14
63339;BME280;47485;51.378;-1.342;2022-07-30T08:12:58;100532.18;;;15.89;33.98
63339;BME280;47485;51.378;-1.342;2022-07-30T08:15:25;100531.90;;;17.38;33.85
63339;BME280;47485;51.378;-1.342;2022-07-30T08:17:51;100532.29;;;16.86;33.34
63339;BME280;47485;51.378;-1.342;2022-07-30T08:20:18;100531.30;;;16.45;34.51
63339;BME280;47485;51.378;-1.342;2022-07-30T08:22:48;100526.67;;;17.48;31.98
63339;BME280;47485;51.378;-1.342;2022-07-30T08:25:15;100526.54;;;18.75;33.20
63339;BME280;47485;51.378;-1.342;2022-07-30T08:27:44;100527.47;;;16.54;34.40
63339;BME280;47485;51.378;-1.342;2022-07-30T08:30:12;100525.60;;;16.84;34.81
63339;BME280;47485;51.378;-1.342;2022-07-30T08:32:40;100516.39;;;17.46;33.48
63339;BME280;47485;51.378;-1.342;2022-07-30T08:35:07;100508.97;;;13.01;35.52
63339;BME280;47485;51.378;-1.342;2022-07-30T08:37:33;100514.19;;;11.07;37.29
63339;BME280;47485;51.378;-1.342;2022-07-30T08:40:01;100506.00;;;17.10;31.72
63339;BME280;47485;51.378;-1.342;2022-07-30T08:42:28;100501.08;;;17.53;32.30
63339;BME280;47485;51.378;-1.342;2022-07-30T08:44:56;100495.27;;;16.51;33.99
63339;BME280;47485;51.378;-1.342;2022-07-30T08:47:30;100495.72;;;15.94;33.17
63339;BME280;47485;51.378;-1.342;2022-07-30T08:49:59;100498.83;;;16.61;32.23
63339;BME280;47485;51.378;-1.342;2022-07-30T08:52:27;100501.54;;;17.49;31.17
63339;BME280;47485;51.378;-1.342;2022-07-30T08:54:55;100502.62;;;17.27;31.85
63339;BME280;47485;51.378;-1.342;2022-07-30T08:57:22;100510.72;;;14.45;33.76
63339;BME280;47485;51.378;-1.342;2022-07-30T08:59:50;100503.39;;;17.07;31.02
63339;BME280;47485;51.378;-1.342;2022-07-30T09:02:17;100504.43;;;16.41;31.79
63339;BME280;47485;51.378;-1.342;2022-07-30T09:04:43;100499.50;;;14.83;32.61
63339;BME280;47485;51.378;-1.342;2022-07-30T09:07:10;100504.98;;;16.68;29.86
63339;BME280;47485;51.378;-1.342;2022-07-30T09:09:37;100499.78;;;18.97;28.89
63339;BME280;47485;51.378;-1.342;2022-07-30T09:12:31;100502.44;;;19.48;28.23
63339;BME280;47485;51.378;-1.342;2022-07-30T09:15:04;100507.05;;;19.23;27.79
63339;BME280;47485;51.378;-1.342;2022-07-30T09:17:51;100515.60;;;13.70;31.03
63339;BME280;47485;51.378;-1.342;2022-07-30T09:20:19;100514.29;;;16.61;29.81
63339;BME280;47485;51.378;-1.342;2022-07-30T09:22:48;100515.35;;;16.40;31.62
63339;BME280;47485;51.378;-1.342;2022-07-30T09:25:31;100518.30;;;16.68;31.00
63339;BME280;47485;51.378;-1.342;2022-07-30T09:27:59;100516.89;;;14.90;31.22
63339;BME280;47485;51.378;-1.342;2022-07-30T09:30:26;100517.51;;;17.97;30.57
63339;BME280;47485;51.378;-1.342;2022-07-30T09:32:55;100522.04;;;15.48;32.30
63339;BME280;47485;51.378;-1.342;2022-07-30T09:35:22;100520.79;;;16.94;29.15
63339;BME280;47485;51.378;-1.342;2022-07-30T09:37:57;100514.83;;;18.26;28.37
63339;BME280;47485;51.378;-1.342;2022-07-30T09:40:31;100511.16;;;16.73;29.35
63339;BME280;47485;51.378;-1.342;2022-07-30T09:43:03;100520.29;;;16.37;29.21
63339;BME280;47485;51.378;-1.342;2022-07-30T09:45:35;100522.53;;;15.66;29.24
63339;BME280;47485;51.378;-1.342;2022-07-30T09:48:20;100520.06;;;18.20;26.19
63339;BME280;47485;51.378;-1.342;2022-07-30T09:50:48;100522.71;;;17.36;26.73
63339;BME280;47485;51.378;-1.342;2022-07-30T09:53:15;100520.59;;;16.33;27.15
63339;BME280;47485;51.378;-1.342;2022-07-30T09:55:42;100516.56;;;16.70;27.09
63339;BME280;47485;51.378;-1.342;2022-07-30T09:58:11;100523.12;;;17.97;28.12
63339;BME280;47485;51.378;-1.342;2022-07-30T10:00:39;100523.07;;;17.19;29.16
63339;BME280;47485;51.378;-1.342;2022-07-30T10:03:14;100517.07;;;12.79;31.40
63339;BME280;47485;51.378;-1.342;2022-07-30T10:05:49;100519.57;;;14.95;30.34
63339;BME280;47485;51.378;-1.342;2022-07-30T10:08:16;100528.63;;;12.24;32.59
63339;BME280;47485;51.378;-1.342;2022-07-30T10:10:44;100524.98;;;16.31;29.83
63339;BME280;47485;51.378;-1.342;2022-07-30T10:13:13;100526.56;;;18.44;29.60
63339;BME280;47485;51.378;-1.342;2022-07-30T10:15:41;100527.74;;;16.69;31.15
63339;BME280;47485;51.378;-1.342;2022-07-30T10:18:09;100531.83;;;16.66;31.23
63339;BME280;47485;51.378;-1.342;2022-07-30T10:20:36;100531.66;;;16.17;30.43
63339;BME280;47485;51.378;-1.342;2022-07-30T10:23:06;100534.23;;;16.25;32.75
63339;BME280;47485;51.378;-1.342;2022-07-30T10:25:33;100527.50;;;18.24;30.58
63339;BME280;47485;51.378;-1.342;2022-07-30T10:28:01;100523.29;;;16.63;30.86
63339;BME280;47485;51.378;-1.342;2022-07-30T10:30:28;100519.88;;;16.91;31.05
63339;BME280;47485;51.378;-1.342;2022-07-30T10:32:57;100522.76;;;17.34;29.85
63339;BME280;47485;51.378;-1.342;2022-07-30T10:35:24;100523.18;;;18.08;31.62
63339;BME280;47485;51.378;-1.342;2022-07-30T10:37:51;100521.51;;;16.76;32.03
63339;BME280;47485;51.378;-1.342;2022-07-30T10:40:25;100518.28;;;17.83;30.84
63339;BME280;47485;51.378;-1.342;2022-07-30T10:43:06;100515.46;;;18.26;30.52
63339;BME280;47485;51.378;-1.342;2022-07-30T10:45:46;100514.35;;;19.05;30.42
63339;BME280;47485;51.378;-1.342;2022-07-30T10:48:13;100510.98;;;18.21;29.60
63339;BME280;47485;51.378;-1.342;2022-07-30T10:50:49;100508.09;;;18.33;28.81
63339;BME280;47485;51.378;-1.342;2022-07-30T10:53:32;100500.14;;;18.29;29.03
63339;BME280;47485;51.378;-1.342;2022-07-30T10:56:17;100503.56;;;17.54;31.34
63339;BME280;47485;51.378;-1.342;2022-07-30T10:59:01;100505.63;;;17.63;33.12
63339;BME280;47485;51.378;-1.342;2022-07-30T11:02:34;100506.66;;;16.89;31.54
63339;BME280;47485;51.378;-1.342;2022-07-30T11:05:32;100503.01;;;16.93;29.92
63339;BME280;47485;51.378;-1.342;2022-07-30T11:08:28;100507.12;;;17.71;29.45
63339;BME280;47485;51.378;-1.342;2022-07-30T11:10:56;100497.99;;;19.20;29.25
63339;BME280;47485;51.378;-1.342;2022-07-30T11:13:48;100500.49;;;18.15;29.01
63339;BME280;47485;51.378;-1.342;2022-07-30T11:16:15;100506.47;;;18.93;28.92
63339;BME280;47485;51.378;-1.342;2022-07-30T11:19:02;100509.39;;;17.06;32.39
63339;BME280;47485;51.378;-1.342;2022-07-30T11:21:29;100508.49;;;18.79;31.50
63339;BME280;47485;51.378;-1.342;2022-07-30T11:23:57;100512.73;;;18.69;32.34
63339;BME280;47485;51.378;-1.342;2022-07-30T11:26:56;100513.43;;;16.75;33.73
63339;BME280;47485;51.378;-1.342;2022-07-30T11:29:33;100511.31;;;18.15;33.58
63339;BME280;47485;51.378;-1.342;2022-07-30T11:32:34;100515.56;;;18.32;33.46
63339;BME280;47485;51.378;-1.342;2022-07-30T11:35:18;100512.96;;;16.92;34.15
63339;BME280;47485;51.378;-1.342;2022-07-30T11:38:03;100508.71;;;17.28;34.28
63339;BME280;47485;51.378;-1.342;2022-07-30T11:40:32;100505.35;;;17.64;33.63
63339;BME280;47485;51.378;-1.342;2022-07-30T11:43:18;100506.37;;;17.12;34.18
63339;BME280;47485;51.378;-1.342;2022-07-30T11:45:45;100505.63;;;17.96;33.13
63339;BME280;47485;51.378;-1.342;2022-07-30T11:48:14;100503.42;;;18.03;31.75
63339;BME280;47485;51.378;-1.342;2022-07-30T11:50:42;100498.94;;;18.51;30.61
63339;BME280;47485;51.378;-1.342;2022-07-30T11:53:14;100507.45;;;18.82;31.59
63339;BME280;47485;51.378;-1.342;2022-07-30T11:55:42;100508.29;;;17.62;33.71
63339;BME280;47485;51.378;-1.342;2022-07-30T11:58:13;100509.98;;;18.51;34.28
63339;BME280;47485;51.378;-1.342;2022-07-30T12:00:47;100503.68;;;18.15;33.72
63339;BME280;47485;51.378;-1.342;2022-07-30T12:03:16;100507.49;;;16.80;35.91
63339;BME280;47485;51.378;-1.342;2022-07-30T12:05:43;100510.82;;;16.34;36.51
63339;BME280;47485;51.378;-1.342;2022-07-30T12:08:12;100503.05;;;17.24;35.91
63339;BME280;47485;51.378;-1.342;2022-07-30T12:10:39;100501.19;;;17.33;35.41
63339;BME280;47485;51.378;-1.342;2022-07-30T12:13:13;100501.37;;;16.55;34.96
63339;BME280;47485;51.378;-1.342;2022-07-30T12:15:41;100505.94;;;17.60;35.24
63339;BME280;47485;51.378;-1.342;2022-07-30T12:18:09;100498.11;;;17.85;34.51
63339;BME280;47485;51.378;-1.342;2022-07-30T12:20:36;100496.36;;;15.30;35.56
63339;BME280;47485;51.378;-1.342;2022-07-30T12:23:10;100489.20;;;17.71;32.10
63339;BME280;47485;51.378;-1.342;2022-07-30T12:25:38;100488.33;;;18.23;32.68
63339;BME280;47485;51.378;-1.342;2022-07-30T12:28:05;100489.64;;;18.65;33.01
63339;BME280;47485;51.378;-1.342;2022-07-30T12:30:31;100493.26;;;17.65;32.61
63339;BME280;47485;51.378;-1.342;2022-07-30T12:32:58;100489.33;;;18.08;31.35
63339;BME280;47485;51.378;-1.342;2022-07-30T12:35:40;100482.26;;;20.41;29.39
63339;BME280;47485;51.378;-1.342;2022-07-30T12:38:07;100483.91;;;17.27;30.34
63339;BME280;47485;51.378;-1.342;2022-07-30T12:40:49;100478.99;;;16.65;31.01
63339;BME280;47485;51.378;-1.342;2022-07-30T12:43:16;100473.46;;;22.45;27.27
63339;BME280;47485;51.378;-1.342;2022-07-30T12:45:43;100466.63;;;20.29;29.75
63339;BME280;47485;51.378;-1.342;2022-07-30T12:48:10;100464.89;;;20.17;30.67
63339;BME280;47485;51.378;-1.342;2022-07-30T12:50:37;100470.75;;;19.29;33.19
63339;BME280;47485;51.378;-1.342;2022-07-30T12:53:04;100470.31;;;18.03;33.10